createdAt,value
2022-10-21T12:08:49.483Z,16.50
2022-10-21T12:11:24.812Z,17.10
2022-10-21T12:13:58.047Z,17.00
2022-10-21T12:16:29.439Z,16.90
2022-10-21T12:19:01.399Z,17.00
2022-10-21T12:21:32.131Z,17.00
2022-10-21T12:24:06.609Z,17.10
2022-10-21T12:26:41.445Z,17.10
2022-10-21T12:36:49.436Z,17.10
2022-10-21T12:39:39.144Z,17.00
2022-10-21T12:42:12.799Z,17.00
2022-10-21T12:44:47.545Z,16.90
2022-10-21T12:47:29.820Z,17.00
2022-10-21T12:50:28.847Z,17.10
2022-10-21T12:53:28.555Z,17.20
2022-10-21T12:55:59.456Z,17.00
2022-10-21T12:58:37.769Z,16.80
2022-10-21T13:01:09.062Z,17.10
2022-10-21T13:03:52.329Z,16.80
2022-10-21T13:06:53.914Z,17.10
2022-10-21T13:09:38.565Z,16.80
2022-10-21T13:12:19.232Z,16.90
2022-10-21T13:14:49.142Z,16.50
2022-10-21T13:17:31.563Z,16.50
2022-10-21T13:20:34.084Z,16.50
2022-10-21T13:23:33.720Z,16.80
2022-10-21T13:26:28.053Z,16.80
2022-10-21T13:29:01.451Z,16.60
2022-10-21T13:31:30.680Z,16.80
2022-10-21T13:34:01.217Z,16.80
2022-10-21T13:36:40.283Z,16.80
2022-10-21T13:39:22.702Z,16.40
2022-10-21T13:42:01.763Z,16.50
2022-10-21T13:44:35.180Z,16.90
2022-10-21T13:47:27.140Z,16.70
2022-10-21T13:49:58.736Z,16.60
2022-10-21T13:52:30.753Z,16.80
2022-10-21T13:55:00.066Z,16.70
2022-10-21T13:57:31.943Z,16.30
2022-10-21T14:00:07.567Z,16.50
2022-10-21T14:02:35.796Z,16.40
2022-10-21T14:05:05.655Z,16.60
2022-10-21T14:07:34.003Z,16.30
2022-10-21T14:10:03.605Z,16.60
2022-10-21T14:12:35.191Z,16.60
2022-10-21T14:15:07.670Z,16.50
2022-10-21T14:17:39.827Z,16.10
2022-10-21T14:20:16.880Z,16.30
2022-10-21T14:22:50.155Z,16.50
2022-10-21T14:25:19.987Z,16.30
2022-10-21T14:27:50.982Z,16.00
2022-10-21T14:30:21.989Z,15.90
2022-10-21T14:32:51.858Z,16.00
2022-10-21T14:35:28.030Z,16.20
2022-10-21T14:37:57.943Z,15.90
2022-10-21T14:40:31.910Z,15.90
2022-10-21T14:43:02.205Z,15.70
2022-10-21T14:45:33.082Z,15.80
2022-10-21T14:48:10.559Z,15.80
2022-10-21T14:50:41.741Z,15.60
2022-10-21T14:53:18.601Z,15.50
2022-10-21T14:55:48.841Z,15.80
2022-10-21T14:58:23.166Z,15.60
2022-10-21T15:00:56.305Z,15.40
2022-10-21T15:03:42.240Z,15.60
2022-10-21T15:06:15.853Z,15.60
2022-10-21T15:08:46.292Z,15.70
